createdAt,value
2023-02-15T00:00:06.694Z,968.84
2023-02-15T00:00:17.669Z,968.83
2023-02-15T00:00:28.448Z,968.83
2023-02-15T00:00:39.503Z,968.82
2023-02-15T00:00:50.464Z,968.81
2023-02-15T00:01:01.235Z,968.82
2023-02-15T00:01:12.299Z,968.82
2023-02-15T00:01:23.278Z,968.81
2023-02-15T00:01:34.020Z,968.80
2023-02-15T00:01:45.156Z,968.79
2023-02-15T00:01:56.182Z,968.78
2023-02-15T00:02:07.002Z,968.77
2023-02-15T00:02:17.479Z,968.77
2023-02-15T00:02:28.450Z,968.78
2023-02-15T00:02:39.214Z,968.79
2023-02-15T00:02:50.365Z,968.78
2023-02-15T00:03:01.302Z,968.78
2023-02-15T00:03:12.117Z,968.79
2023-02-15T00:03:23.276Z,968.78
2023-02-15T00:03:34.183Z,968.78
2023-02-15T00:03:44.968Z,968.78
2023-02-15T00:03:56.017Z,968.77
2023-02-15T00:04:06.998Z,968.75
2023-02-15T00:04:17.817Z,968.75
2023-02-15T00:04:28.827Z,968.75
2023-02-15T00:04:39.808Z,968.75
2023-02-15T00:04:50.588Z,968.76
2023-02-15T00:05:01.642Z,968.75
2023-02-15T00:05:12.610Z,968.75
2023-02-15T00:05:23.375Z,968.75
2023-02-15T00:05:34.431Z,968.74
2023-02-15T00:05:45.418Z,968.73
2023-02-15T00:05:56.165Z,968.73
2023-02-15T00:06:07.217Z,968.73
2023-02-15T00:06:18.190Z,968.75
2023-02-15T00:06:28.966Z,968.75
2023-02-15T00:06:40.038Z,968.74
2023-02-15T00:06:50.994Z,968.73
2023-02-15T00:07:01.771Z,968.74
2023-02-15T00:07:12.829Z,968.73
2023-02-15T00:07:23.806Z,968.73
2023-02-15T00:07:34.572Z,968.74
2023-02-15T00:07:45.616Z,968.74
2023-02-15T00:07:56.615Z,968.74
2023-02-15T00:08:07.397Z,968.75
2023-02-15T00:08:18.434Z,968.75
2023-02-15T00:08:29.415Z,968.74
2023-02-15T00:08:40.210Z,968.72
2023-02-15T00:08:51.270Z,968.73
2023-02-15T00:09:02.232Z,968.72
2023-02-15T00:09:12.999Z,968.72
2023-02-15T00:09:24.055Z,968.73
2023-02-15T00:09:35.025Z,968.74
2023-02-15T00:09:45.800Z,968.73
2023-02-15T00:09:56.858Z,968.74
2023-02-15T00:10:07.835Z,968.72
2023-02-15T00:10:18.593Z,968.72
2023-02-15T00:10:29.648Z,968.71
2023-02-15T00:10:40.606Z,968.72
2023-02-15T00:10:51.385Z,968.72
2023-02-15T00:11:02.443Z,968.71
2023-02-15T00:11:13.420Z,968.72
2023-02-15T00:11:24.181Z,968.72
2023-02-15T00:11:35.256Z,968.72
2023-02-15T00:11:46.211Z,968.72
2023-02-15T00:11:56.978Z,968.70
2023-02-15T00:12:08.057Z,968.71
2023-02-15T00:12:19.023Z,968.71
2023-02-15T00:12:29.839Z,968.70
2023-02-15T00:12:40.324Z,968.70
2023-02-15T00:12:51.295Z,968.69
2023-02-15T00:13:02.101Z,968.69
2023-02-15T00:13:13.130Z,968.69
2023-02-15T00:13:24.115Z,968.67
2023-02-15T00:13:34.881Z,968.67
2023-02-15T00:13:45.930Z,968.68
2023-02-15T00:13:56.891Z,968.66
2023-02-15T00:14:07.675Z,968.67
2023-02-15T00:14:18.705Z,968.66
2023-02-15T00:14:29.685Z,968.66
2023-02-15T00:14:40.482Z,968.66
2023-02-15T00:14:51.496Z,968.65
2023-02-15T00:15:02.472Z,968.65
2023-02-15T00:15:13.239Z,968.65
2023-02-15T00:15:24.323Z,968.65
2023-02-15T00:15:35.308Z,968.65
2023-02-15T00:15:46.036Z,968.65
2023-02-15T00:15:57.086Z,968.65
2023-02-15T00:16:08.148Z,968.65
2023-02-15T00:16:18.885Z,968.65
2023-02-15T00:16:29.949Z,968.65
2023-02-15T00:16:40.986Z,968.65
2023-02-15T00:16:51.718Z,968.65
2023-02-15T00:17:02.785Z,968.65
2023-02-15T00:17:13.762Z,968.66
2023-02-15T00:17:24.552Z,968.65
2023-02-15T00:17:35.583Z,968.66
2023-02-15T00:17:46.565Z,968.66
2023-02-15T00:17:57.373Z,968.67
2023-02-15T00:18:08.443Z,968.66
2023-02-15T00:18:19.381Z,968.66
2023-02-15T00:18:30.155Z,968.66
2023-02-15T00:18:41.215Z,968.66
2023-02-15T00:18:52.212Z,968.67
2023-02-15T00:19:03.020Z,968.66
2023-02-15T00:19:14.054Z,968.66
2023-02-15T00:19:25.044Z,968.67
2023-02-15T00:19:35.843Z,968.67
2023-02-15T00:19:46.353Z,968.67
2023-02-15T00:19:57.343Z,968.67
2023-02-15T00:20:08.090Z,968.69
2023-02-15T00:20:19.140Z,968.68
2023-02-15T00:20:30.114Z,968.71
2023-02-15T00:20:40.888Z,968.69
2023-02-15T00:20:51.940Z,968.69
2023-02-15T00:21:02.898Z,968.70
2023-02-15T00:21:13.689Z,968.70
2023-02-15T00:21:24.731Z,968.70
2023-02-15T00:21:35.704Z,968.69
2023-02-15T00:21:46.473Z,968.68
2023-02-15T00:21:57.507Z,968.68
2023-02-15T00:22:08.519Z,968.67
2023-02-15T00:22:19.249Z,968.67
2023-02-15T00:22:30.307Z,968.66
2023-02-15T00:22:41.283Z,968.66
2023-02-15T00:22:52.067Z,968.67
2023-02-15T00:23:03.108Z,968.66
2023-02-15T00:23:14.096Z,968.65
2023-02-15T00:23:24.870Z,968.65
2023-02-15T00:23:35.946Z,968.64
2023-02-15T00:23:46.948Z,968.63
2023-02-15T00:23:57.688Z,968.62
2023-02-15T00:24:08.744Z,968.63
2023-02-15T00:24:19.728Z,968.64
2023-02-15T00:24:30.468Z,968.63
2023-02-15T00:24:41.518Z,968.64
2023-02-15T00:24:52.526Z,968.64
2023-02-15T00:25:03.297Z,968.63
2023-02-15T00:25:14.335Z,968.63
2023-02-15T00:25:25.291Z,968.62
2023-02-15T00:25:36.068Z,968.62
2023-02-15T00:25:47.104Z,968.62
2023-02-15T00:25:58.114Z,968.61
2023-02-15T00:26:08.872Z,968.61
2023-02-15T00:26:19.950Z,968.60
2023-02-15T00:26:30.904Z,968.61
2023-02-15T00:26:41.683Z,968.61
2023-02-15T00:26:52.728Z,968.60
2023-02-15T00:27:03.708Z,968.59
2023-02-15T00:27:14.481Z,968.60
2023-02-15T00:27:25.553Z,968.61
2023-02-15T00:27:36.499Z,968.60
2023-02-15T00:27:47.285Z,968.60
2023-02-15T00:27:58.335Z,968.60
2023-02-15T00:28:09.393Z,968.60
2023-02-15T00:28:20.108Z,968.60
2023-02-15T00:28:31.169Z,968.60
2023-02-15T00:28:42.152Z,968.59
2023-02-15T00:28:52.941Z,968.60
2023-02-15T00:29:04.070Z,968.60
2023-02-15T00:29:14.970Z,968.61
2023-02-15T00:29:25.790Z,968.59
2023-02-15T00:29:36.813Z,968.59
2023-02-15T00:29:47.781Z,968.60
2023-02-15T00:29:58.592Z,968.58
2023-02-15T00:30:09.630Z,968.59
2023-02-15T00:30:20.644Z,968.59
2023-02-15T00:30:31.423Z,968.59
2023-02-15T00:30:42.460Z,968.59
2023-02-15T00:30:53.472Z,968.59
2023-02-15T00:31:04.321Z,968.59
2023-02-15T00:31:14.998Z,968.59
2023-02-15T00:31:25.552Z,968.60
2023-02-15T00:31:36.401Z,968.61
2023-02-15T00:31:46.903Z,968.60
2023-02-15T00:31:57.849Z,968.60
2023-02-15T00:32:08.607Z,968.60
2023-02-15T00:32:19.676Z,968.60
2023-02-15T00:32:30.630Z,968.58
2023-02-15T00:32:41.408Z,968.58
2023-02-15T00:32:52.464Z,968.58
2023-02-15T00:33:03.433Z,968.59
2023-02-15T00:33:14.208Z,968.59
2023-02-15T00:33:25.259Z,968.59
2023-02-15T00:33:36.217Z,968.60
2023-02-15T00:33:47.061Z,968.60
2023-02-15T00:33:57.578Z,968.60
2023-02-15T00:34:08.529Z,968.59
2023-02-15T00:34:19.291Z,968.61
2023-02-15T00:34:30.347Z,968.61
2023-02-15T00:34:41.314Z,968.61
2023-02-15T00:34:52.073Z,968.61
2023-02-15T00:35:03.137Z,968.61
2023-02-15T00:35:14.100Z,968.61
2023-02-15T00:35:24.872Z,968.61
2023-02-15T00:35:35.930Z,968.60
2023-02-15T00:35:46.895Z,968.61
2023-02-15T00:35:57.664Z,968.61
2023-02-15T00:36:08.719Z,968.61
2023-02-15T00:36:19.687Z,968.61
2023-02-15T00:36:30.464Z,968.62
2023-02-15T00:36:41.497Z,968.63
2023-02-15T00:36:52.480Z,968.62
2023-02-15T00:37:03.224Z,968.63
2023-02-15T00:37:14.272Z,968.63
2023-02-15T00:37:25.243Z,968.63
2023-02-15T00:37:36.016Z,968.63
2023-02-15T00:37:47.071Z,968.65
2023-02-15T00:37:58.070Z,968.63
2023-02-15T00:38:08.815Z,968.62
2023-02-15T00:38:19.886Z,968.63
2023-02-15T00:38:30.852Z,968.63
2023-02-15T00:38:41.622Z,968.64
2023-02-15T00:38:52.668Z,968.65
2023-02-15T00:39:03.645Z,968.66
2023-02-15T00:39:14.413Z,968.66
2023-02-15T00:39:25.466Z,968.66
2023-02-15T00:39:36.423Z,968.66
2023-02-15T00:39:47.226Z,968.67
2023-02-15T00:39:58.259Z,968.65
2023-02-15T00:40:09.267Z,968.66
2023-02-15T00:40:19.988Z,968.66
2023-02-15T00:40:31.041Z,968.66
2023-02-15T00:40:42.029Z,968.67
2023-02-15T00:40:52.989Z,968.66
2023-02-15T00:41:04.036Z,968.67
2023-02-15T00:41:15.073Z,968.66
2023-02-15T00:41:25.828Z,968.65
2023-02-15T00:41:36.891Z,968.65
2023-02-15T00:41:47.854Z,968.68
2023-02-15T00:41:58.617Z,968.68
2023-02-15T00:42:09.694Z,968.67
2023-02-15T00:42:20.656Z,968.67
2023-02-15T00:42:31.426Z,968.68
2023-02-15T00:42:42.483Z,968.69
2023-02-15T00:42:53.447Z,968.68
2023-02-15T00:43:04.212Z,968.68
2023-02-15T00:43:15.275Z,968.68
2023-02-15T00:43:26.265Z,968.67
2023-02-15T00:43:37.059Z,968.66
2023-02-15T00:43:48.117Z,968.66
2023-02-15T00:43:59.078Z,968.66
2023-02-15T00:44:09.853Z,968.67
2023-02-15T00:44:20.906Z,968.67
2023-02-15T00:44:31.864Z,968.67
2023-02-15T00:44:42.639Z,968.67
2023-02-15T00:44:53.702Z,968.67
2023-02-15T00:45:04.659Z,968.67
2023-02-15T00:45:17.344Z,968.67
2023-02-15T00:45:26.290Z,968.67
2023-02-15T00:45:37.318Z,968.67
2023-02-15T00:45:48.108Z,968.66
2023-02-15T00:45:59.334Z,968.66
2023-02-15T00:46:09.858Z,968.66
2023-02-15T00:46:20.691Z,968.65
2023-02-15T00:46:31.229Z,968.66
2023-02-15T00:46:42.199Z,968.67
2023-02-15T00:46:52.955Z,968.65
2023-02-15T00:47:04.019Z,968.66
2023-02-15T00:47:15.042Z,968.65
2023-02-15T00:47:25.792Z,968.67
2023-02-15T00:47:36.848Z,968.67
2023-02-15T00:47:47.817Z,968.67
2023-02-15T00:47:58.602Z,968.67
2023-02-15T00:48:09.667Z,968.67
2023-02-15T00:48:20.612Z,968.66
2023-02-15T00:48:31.414Z,968.66
2023-02-15T00:48:42.431Z,968.67
2023-02-15T00:48:53.405Z,968.66
2023-02-15T00:49:04.184Z,968.66
2023-02-15T00:49:15.236Z,968.66
2023-02-15T00:49:26.219Z,968.66
2023-02-15T00:49:36.986Z,968.66
2023-02-15T00:49:48.029Z,968.65
2023-02-15T00:49:59.012Z,968.66
2023-02-15T00:50:09.778Z,968.66
2023-02-15T00:50:23.472Z,968.64
2023-02-15T00:50:31.487Z,968.65
2023-02-15T00:50:42.254Z,968.66
2023-02-15T00:50:53.299Z,968.65
2023-02-15T00:51:04.268Z,968.65
2023-02-15T00:51:15.114Z,968.64
2023-02-15T00:51:25.600Z,968.64
2023-02-15T00:51:36.603Z,968.63
2023-02-15T00:51:47.413Z,968.64
2023-02-15T00:51:58.424Z,968.63
2023-02-15T00:52:09.396Z,968.63
2023-02-15T00:52:20.176Z,968.62
2023-02-15T00:52:31.251Z,968.60
2023-02-15T00:52:42.206Z,968.60
2023-02-15T00:52:53.012Z,968.59
2023-02-15T00:53:04.033Z,968.58
2023-02-15T00:53:15.024Z,968.58
2023-02-15T00:53:25.817Z,968.57
2023-02-15T00:53:36.870Z,968.57
2023-02-15T00:53:47.839Z,968.56
2023-02-15T00:53:58.664Z,968.55
2023-02-15T00:54:09.175Z,968.55
2023-02-15T00:54:20.142Z,968.54
2023-02-15T00:54:30.917Z,968.55
2023-02-15T00:54:41.959Z,968.55
2023-02-15T00:54:52.931Z,968.54
2023-02-15T00:55:03.711Z,968.54
2023-02-15T00:55:14.762Z,968.54
2023-02-15T00:55:25.752Z,968.53
2023-02-15T00:55:36.492Z,968.52
2023-02-15T00:55:47.536Z,968.51
2023-02-15T00:55:58.528Z,968.51
2023-02-15T00:56:09.316Z,968.50
2023-02-15T00:56:20.346Z,968.50
2023-02-15T00:56:31.313Z,968.49
2023-02-15T00:56:42.076Z,968.50
2023-02-15T00:56:53.137Z,968.51
2023-02-15T00:57:04.121Z,968.52
2023-02-15T00:57:14.896Z,968.51
2023-02-15T00:57:25.934Z,968.50
2023-02-15T00:57:36.910Z,968.50
2023-02-15T00:57:47.669Z,968.50
2023-02-15T00:57:58.715Z,968.50
2023-02-15T00:58:09.688Z,968.50
2023-02-15T00:58:20.478Z,968.51
2023-02-15T00:58:31.500Z,968.51
2023-02-15T00:58:42.517Z,968.50
2023-02-15T00:58:53.307Z,968.50
2023-02-15T00:59:04.339Z,968.48
2023-02-15T00:59:15.314Z,968.49
2023-02-15T00:59:26.080Z,968.49
2023-02-15T00:59:37.124Z,968.48
2023-02-15T00:59:48.122Z,968.49
2023-02-15T00:59:58.888Z,968.48
2023-02-15T01:00:09.938Z,968.48
2023-02-15T01:00:20.893Z,968.48
2023-02-15T01:00:31.660Z,968.48
2023-02-15T01:00:42.719Z,968.46
2023-02-15T01:00:53.714Z,968.45
2023-02-15T01:01:04.490Z,968.45
2023-02-15T01:01:15.576Z,968.46
2023-02-15T01:01:26.648Z,968.45
2023-02-15T01:01:37.533Z,968.44
2023-02-15T01:01:48.034Z,968.45
2023-02-15T01:01:58.992Z,968.46
2023-02-15T01:02:09.769Z,968.47
2023-02-15T01:02:20.834Z,968.48
2023-02-15T01:02:31.811Z,968.47
2023-02-15T01:02:42.610Z,968.46
2023-02-15T01:02:53.648Z,968.45
2023-02-15T01:03:04.637Z,968.45
2023-02-15T01:03:15.447Z,968.44
2023-02-15T01:03:25.936Z,968.43
2023-02-15T01:03:36.922Z,968.44
2023-02-15T01:03:47.693Z,968.44
2023-02-15T01:03:58.776Z,968.44
2023-02-15T01:04:09.779Z,968.45
2023-02-15T01:04:20.545Z,968.44
2023-02-15T01:04:31.099Z,968.44
2023-02-15T01:04:42.104Z,968.44
2023-02-15T01:04:52.865Z,968.44
2023-02-15T01:05:03.911Z,968.44
2023-02-15T01:05:14.881Z,968.42
2023-02-15T01:05:25.651Z,968.41
2023-02-15T01:05:36.695Z,968.41
2023-02-15T01:05:47.659Z,968.41
2023-02-15T01:05:58.494Z,968.42
2023-02-15T01:06:09.479Z,968.43
2023-02-15T01:06:20.457Z,968.43
2023-02-15T01:06:31.233Z,968.43
2023-02-15T01:06:42.266Z,968.42
2023-02-15T01:06:53.239Z,968.42
2023-02-15T01:07:04.018Z,968.41
2023-02-15T01:07:15.062Z,968.41
2023-02-15T01:07:26.037Z,968.41
2023-02-15T01:07:36.827Z,968.42
2023-02-15T01:07:47.855Z,968.44
2023-02-15T01:07:58.837Z,968.44
2023-02-15T01:08:09.650Z,968.43
2023-02-15T01:08:20.678Z,968.43
2023-02-15T01:08:31.639Z,968.42
2023-02-15T01:08:42.415Z,968.42
2023-02-15T01:08:53.486Z,968.41
2023-02-15T01:09:04.484Z,968.41
2023-02-15T01:09:15.228Z,968.41
2023-02-15T01:09:26.292Z,968.41
2023-02-15T01:09:37.259Z,968.40
2023-02-15T01:09:48.053Z,968.40
2023-02-15T01:09:59.101Z,968.39
2023-02-15T01:10:10.056Z,968.39
2023-02-15T01:10:20.828Z,968.39
2023-02-15T01:10:31.893Z,968.39
2023-02-15T01:10:42.885Z,968.38
2023-02-15T01:10:53.685Z,968.37
2023-02-15T01:11:04.217Z,968.37
2023-02-15T01:11:15.186Z,968.37
2023-02-15T01:11:25.968Z,968.38
2023-02-15T01:11:37.015Z,968.37
2023-02-15T01:11:47.996Z,968.36
2023-02-15T01:11:58.761Z,968.35
2023-02-15T01:12:09.809Z,968.34
2023-02-15T01:12:20.879Z,968.34
2023-02-15T01:12:31.634Z,968.35
2023-02-15T01:12:42.704Z,968.33
2023-02-15T01:12:53.664Z,968.33
2023-02-15T01:13:04.443Z,968.32
2023-02-15T01:13:15.496Z,968.32
2023-02-15T01:13:26.484Z,968.32
2023-02-15T01:13:37.236Z,968.31
2023-02-15T01:13:48.287Z,968.31
2023-02-15T01:13:59.305Z,968.31
2023-02-15T01:14:10.052Z,968.30
2023-02-15T01:14:21.124Z,968.29
2023-02-15T01:14:32.091Z,968.28
2023-02-15T01:14:42.856Z,968.27
2023-02-15T01:14:53.925Z,968.26
2023-02-15T01:15:04.913Z,968.26
2023-02-15T01:15:15.676Z,968.25
2023-02-15T01:15:26.729Z,968.25
2023-02-15T01:15:37.740Z,968.24
2023-02-15T01:15:48.508Z,968.24
2023-02-15T01:15:59.800Z,968.23
2023-02-15T01:16:10.484Z,968.23
2023-02-15T01:16:21.292Z,968.23
2023-02-15T01:16:32.310Z,968.22
2023-02-15T01:16:43.282Z,968.23
2023-02-15T01:16:54.054Z,968.23
2023-02-15T01:17:05.160Z,968.22
2023-02-15T01:17:16.125Z,968.20
2023-02-15T01:17:26.914Z,968.20
2023-02-15T01:17:37.959Z,968.20
2023-02-15T01:17:48.910Z,968.20
2023-02-15T01:17:59.687Z,968.18
2023-02-15T01:18:10.750Z,968.20
2023-02-15T01:18:21.711Z,968.21
2023-02-15T01:18:32.459Z,968.20
2023-02-15T01:18:43.519Z,968.20
2023-02-15T01:18:54.513Z,968.21
2023-02-15T01:19:05.282Z,968.20
2023-02-15T01:19:16.321Z,968.20
2023-02-15T01:19:27.332Z,968.19
2023-02-15T01:19:38.092Z,968.20
2023-02-15T01:19:49.147Z,968.19
2023-02-15T01:20:00.130Z,968.20
2023-02-15T01:20:10.883Z,968.20
2023-02-15T01:20:21.939Z,968.20
2023-02-15T01:20:32.907Z,968.19
2023-02-15T01:20:43.691Z,968.19
2023-02-15T01:20:54.739Z,968.18
2023-02-15T01:21:05.700Z,968.18
2023-02-15T01:21:16.521Z,968.18
2023-02-15T01:21:27.547Z,968.19
2023-02-15T01:21:38.530Z,968.18
2023-02-15T01:21:49.274Z,968.18
2023-02-15T01:22:00.329Z,968.17
2023-02-15T01:22:11.292Z,968.16
2023-02-15T01:22:22.064Z,968.16
2023-02-15T01:22:33.102Z,968.15
2023-02-15T01:22:44.090Z,968.15
2023-02-15T01:22:54.848Z,968.15
2023-02-15T01:23:05.908Z,968.16
2023-02-15T01:23:16.881Z,968.16
2023-02-15T01:23:27.646Z,968.15
2023-02-15T01:23:38.684Z,968.15
2023-02-15T01:23:49.682Z,968.15
2023-02-15T01:24:00.471Z,968.15
2023-02-15T01:24:11.538Z,968.16
2023-02-15T01:24:22.503Z,968.14
2023-02-15T01:24:33.277Z,968.14
2023-02-15T01:24:44.349Z,968.15
2023-02-15T01:24:55.299Z,968.15
2023-02-15T01:25:06.070Z,968.16
2023-02-15T01:25:17.140Z,968.16
2023-02-15T01:25:28.081Z,968.16
2023-02-15T01:25:38.851Z,968.16
2023-02-15T01:25:49.907Z,968.16
2023-02-15T01:26:01.184Z,968.17
2023-02-15T01:26:12.038Z,968.18
2023-02-15T01:26:23.084Z,968.18
2023-02-15T01:26:34.076Z,968.19
2023-02-15T01:26:44.846Z,968.19
2023-02-15T01:26:55.437Z,968.18
2023-02-15T01:27:06.427Z,968.18
2023-02-15T01:27:17.273Z,968.17
2023-02-15T01:27:27.731Z,968.18
2023-02-15T01:27:38.707Z,968.18
2023-02-15T01:27:49.474Z,968.20
2023-02-15T01:28:00.544Z,968.19
2023-02-15T01:28:11.515Z,968.18
2023-02-15T01:28:22.276Z,968.17
2023-02-15T01:28:33.350Z,968.17
2023-02-15T01:28:44.294Z,968.16
2023-02-15T01:28:55.056Z,968.17
2023-02-15T01:29:06.139Z,968.17
2023-02-15T01:29:17.101Z,968.18
2023-02-15T01:29:27.893Z,968.18
2023-02-15T01:29:38.957Z,968.19
2023-02-15T01:29:49.941Z,968.20
2023-02-15T01:30:00.736Z,968.20
2023-02-15T01:30:11.833Z,968.18
2023-02-15T01:30:22.801Z,968.17
2023-02-15T01:30:33.555Z,968.17
2023-02-15T01:30:44.707Z,968.18
2023-02-15T01:30:55.278Z,968.18
2023-02-15T01:31:06.212Z,968.18
2023-02-15T01:31:16.891Z,968.18
2023-02-15T01:31:27.519Z,968.19
2023-02-15T01:31:38.589Z,968.18
2023-02-15T01:31:49.348Z,968.18
2023-02-15T01:31:59.966Z,968.19
2023-02-15T01:32:10.815Z,968.20
2023-02-15T01:32:21.816Z,968.20
2023-02-15T01:32:32.775Z,968.20
2023-02-15T01:32:43.541Z,968.18
2023-02-15T01:32:54.612Z,968.19
2023-02-15T01:33:05.559Z,968.20
2023-02-15T01:33:16.335Z,968.19
2023-02-15T01:33:27.405Z,968.20
2023-02-15T01:33:38.372Z,968.21
2023-02-15T01:33:49.121Z,968.20
2023-02-15T01:34:00.184Z,968.19
2023-02-15T01:34:11.212Z,968.20
2023-02-15T01:34:21.944Z,968.20
2023-02-15T01:34:33.003Z,968.19
2023-02-15T01:34:43.964Z,968.19
2023-02-15T01:34:54.738Z,968.19
2023-02-15T01:35:05.786Z,968.19
2023-02-15T01:35:16.791Z,968.19
2023-02-15T01:35:27.546Z,968.18
2023-02-15T01:35:38.590Z,968.19
2023-02-15T01:35:49.586Z,968.18
2023-02-15T01:36:00.845Z,968.18
2023-02-15T01:36:10.910Z,968.18
2023-02-15T01:36:21.872Z,968.18
2023-02-15T01:36:32.660Z,968.18
2023-02-15T01:36:43.730Z,968.19
2023-02-15T01:36:54.679Z,968.19
2023-02-15T01:37:05.473Z,968.20
2023-02-15T01:37:16.533Z,968.20
2023-02-15T01:37:27.510Z,968.19
2023-02-15T01:37:38.258Z,968.19
2023-02-15T01:37:49.306Z,968.19
2023-02-15T01:38:00.311Z,968.19
2023-02-15T01:38:11.067Z,968.19
2023-02-15T01:38:22.100Z,968.18
2023-02-15T01:38:33.099Z,968.18
2023-02-15T01:38:43.872Z,968.19
2023-02-15T01:38:54.912Z,968.19
2023-02-15T01:39:05.894Z,968.19
2023-02-15T01:39:16.661Z,968.18
2023-02-15T01:39:27.712Z,968.18
2023-02-15T01:39:38.680Z,968.18
2023-02-15T01:39:49.466Z,968.18
2023-02-15T01:40:00.518Z,968.18
2023-02-15T01:40:11.505Z,968.17
2023-02-15T01:40:22.265Z,968.16
2023-02-15T01:40:33.321Z,968.15
2023-02-15T01:40:44.294Z,968.15
2023-02-15T01:40:55.055Z,968.16
2023-02-15T01:41:06.115Z,968.16
2023-02-15T01:41:17.222Z,968.15
2023-02-15T01:41:27.944Z,968.13
2023-02-15T01:41:38.972Z,968.13
2023-02-15T01:41:49.937Z,968.13
2023-02-15T01:42:00.701Z,968.12
2023-02-15T01:42:11.750Z,968.12
2023-02-15T01:42:22.717Z,968.12
2023-02-15T01:42:33.507Z,968.11
2023-02-15T01:42:44.539Z,968.10
2023-02-15T01:42:55.508Z,968.09
2023-02-15T01:43:06.280Z,968.09
2023-02-15T01:43:17.321Z,968.09
2023-02-15T01:43:28.284Z,968.09
2023-02-15T01:43:39.059Z,968.09
2023-02-15T01:43:50.132Z,968.09
2023-02-15T01:44:01.092Z,968.09
2023-02-15T01:44:11.870Z,968.10
2023-02-15T01:44:22.931Z,968.09
2023-02-15T01:44:33.912Z,968.08
2023-02-15T01:44:44.668Z,968.08
2023-02-15T01:44:55.719Z,968.07
2023-02-15T01:45:06.703Z,968.07
2023-02-15T01:45:17.497Z,968.05
2023-02-15T01:45:28.531Z,968.05
2023-02-15T01:45:39.523Z,968.06
2023-02-15T01:45:50.293Z,968.06
2023-02-15T01:46:01.733Z,968.06
2023-02-15T01:46:12.447Z,968.06
2023-02-15T01:46:23.271Z,968.06
2023-02-15T01:46:33.865Z,968.05
2023-02-15T01:46:44.856Z,968.06
2023-02-15T01:46:55.624Z,968.06
2023-02-15T01:47:06.678Z,968.06
2023-02-15T01:47:17.628Z,968.05
2023-02-15T01:47:28.474Z,968.06
2023-02-15T01:47:39.612Z,968.06
2023-02-15T01:47:50.018Z,968.06
2023-02-15T01:48:00.802Z,968.06
2023-02-15T01:48:11.846Z,968.07
2023-02-15T01:48:22.821Z,968.06
2023-02-15T01:48:33.640Z,968.06
2023-02-15T01:48:44.687Z,968.05
2023-02-15T01:48:55.675Z,968.05
2023-02-15T01:49:06.437Z,968.05
2023-02-15T01:49:17.496Z,968.04
2023-02-15T01:49:28.492Z,968.05
2023-02-15T01:49:39.271Z,968.06
2023-02-15T01:49:50.329Z,968.06
2023-02-15T01:50:01.334Z,968.06
2023-02-15T01:50:12.076Z,968.06
2023-02-15T01:50:23.125Z,968.05
2023-02-15T01:50:34.162Z,968.05
2023-02-15T01:50:44.872Z,968.05
2023-02-15T01:50:55.939Z,968.05
2023-02-15T01:51:06.922Z,968.05
2023-02-15T01:51:17.686Z,968.05
2023-02-15T01:51:28.714Z,968.04
2023-02-15T01:51:39.676Z,968.05
2023-02-15T01:51:50.474Z,968.05
2023-02-15T01:52:01.546Z,968.05
2023-02-15T01:52:12.494Z,968.06
2023-02-15T01:52:23.256Z,968.06
2023-02-15T01:52:34.333Z,968.05
2023-02-15T01:52:45.292Z,968.05
2023-02-15T01:52:56.035Z,968.03
2023-02-15T01:53:07.078Z,968.03
2023-02-15T01:53:18.056Z,968.01
2023-02-15T01:53:28.855Z,968.00
2023-02-15T01:53:39.883Z,968.01
2023-02-15T01:54:01.975Z,968.01
2023-02-15T01:54:13.011Z,968.01
2023-02-15T01:54:24.016Z,968.02
2023-02-15T01:54:34.799Z,968.00
2023-02-15T01:54:45.831Z,968.00
2023-02-15T01:54:56.814Z,967.98
2023-02-15T01:55:08.020Z,967.98
2023-02-15T01:55:18.550Z,967.97
2023-02-15T01:55:29.516Z,967.96
2023-02-15T01:55:40.307Z,967.96
2023-02-15T01:55:51.368Z,967.95
2023-02-15T01:56:02.732Z,967.95
2023-02-15T01:56:13.063Z,967.96
2023-02-15T01:56:24.118Z,967.95
2023-02-15T01:56:35.086Z,967.95
2023-02-15T01:56:45.856Z,967.95
2023-02-15T01:56:56.912Z,967.96
2023-02-15T01:57:07.882Z,967.96
2023-02-15T01:57:18.676Z,967.95
2023-02-15T01:57:29.721Z,967.93
2023-02-15T01:57:40.676Z,967.92
2023-02-15T01:57:51.432Z,967.92
2023-02-15T01:58:02.513Z,967.92
2023-02-15T01:58:13.524Z,967.92
2023-02-15T01:58:24.270Z,967.93
2023-02-15T01:58:35.320Z,967.93
2023-02-15T01:58:46.287Z,967.95
2023-02-15T01:58:57.054Z,967.96
2023-02-15T01:59:08.148Z,967.96
2023-02-15T01:59:19.096Z,967.93
2023-02-15T01:59:29.869Z,967.93
2023-02-15T01:59:40.929Z,967.94
2023-02-15T01:59:51.934Z,967.93
2023-02-15T02:00:02.678Z,967.91
2023-02-15T02:00:13.739Z,967.91
2023-02-15T02:00:24.696Z,967.91
2023-02-15T02:00:35.492Z,967.92
2023-02-15T02:00:46.566Z,967.91
2023-02-15T02:00:58.665Z,967.91
2023-02-15T02:01:08.696Z,967.92
2023-02-15T02:01:19.770Z,967.93
2023-02-15T02:01:30.873Z,967.93
2023-02-15T02:01:41.682Z,967.93
2023-02-15T02:01:52.777Z,967.94
2023-02-15T02:02:03.719Z,967.93
2023-02-15T02:02:14.510Z,967.93
2023-02-15T02:02:25.607Z,967.92
2023-02-15T02:02:36.529Z,967.91
2023-02-15T02:02:47.374Z,967.90
2023-02-15T02:02:57.934Z,967.90
2023-02-15T02:03:08.950Z,967.90
2023-02-15T02:03:19.754Z,967.89
2023-02-15T02:03:30.795Z,967.87
2023-02-15T02:03:41.787Z,967.87
2023-02-15T02:03:52.548Z,967.88
2023-02-15T02:04:03.594Z,967.88
2023-02-15T02:04:14.562Z,967.89
2023-02-15T02:04:25.326Z,967.88
2023-02-15T02:04:36.394Z,967.87
2023-02-15T02:04:47.368Z,967.88
2023-02-15T02:04:58.113Z,967.87
2023-02-15T02:05:09.169Z,967.86
2023-02-15T02:05:20.149Z,967.86
2023-02-15T02:05:30.920Z,967.86
2023-02-15T02:05:42.004Z,967.86
2023-02-15T02:05:52.937Z,967.84
2023-02-15T02:06:03.858Z,967.86
2023-02-15T02:06:14.325Z,967.84
2023-02-15T02:06:26.272Z,967.83
2023-02-15T02:06:35.940Z,967.84
2023-02-15T02:06:46.981Z,967.84
2023-02-15T02:06:57.941Z,967.83
2023-02-15T02:07:08.708Z,967.84
2023-02-15T02:07:19.755Z,967.83
2023-02-15T02:07:30.732Z,967.82
2023-02-15T02:07:41.493Z,967.82
2023-02-15T02:07:52.546Z,967.82
2023-02-15T02:08:03.555Z,967.83
2023-02-15T02:08:14.298Z,967.83
2023-02-15T02:08:25.347Z,967.82
2023-02-15T02:08:36.321Z,967.82
2023-02-15T02:08:47.098Z,967.82
2023-02-15T02:08:58.140Z,967.83
2023-02-15T02:09:09.120Z,967.80
2023-02-15T02:09:19.880Z,967.80
2023-02-15T02:09:30.947Z,967.80
2023-02-15T02:09:41.933Z,967.79
2023-02-15T02:09:52.676Z,967.79
2023-02-15T02:10:03.741Z,967.79
2023-02-15T02:10:14.701Z,967.79
2023-02-15T02:10:25.497Z,967.80
2023-02-15T02:10:36.531Z,967.79
2023-02-15T02:10:47.497Z,967.80
2023-02-15T02:10:58.265Z,967.81
2023-02-15T02:11:09.305Z,967.80
2023-02-15T02:11:20.289Z,967.79
2023-02-15T02:11:31.090Z,967.79
2023-02-15T02:11:42.138Z,967.79
2023-02-15T02:11:53.096Z,967.79
2023-02-15T02:12:03.859Z,967.78
2023-02-15T02:12:14.910Z,967.79
2023-02-15T02:12:25.874Z,967.79
2023-02-15T02:12:36.679Z,967.79
2023-02-15T02:12:47.734Z,967.79
2023-02-15T02:12:58.704Z,967.80
2023-02-15T02:13:09.470Z,967.81
2023-02-15T02:13:20.515Z,967.81
2023-02-15T02:13:31.500Z,967.79
2023-02-15T02:13:42.264Z,967.78
2023-02-15T02:13:53.313Z,967.79
2023-02-15T02:14:04.300Z,967.80
2023-02-15T02:14:15.045Z,967.81
2023-02-15T02:14:26.100Z,967.81
2023-02-15T02:14:37.083Z,967.80
2023-02-15T02:14:47.850Z,967.80
2023-02-15T02:14:58.891Z,967.78
2023-02-15T02:15:09.915Z,967.77
2023-02-15T02:15:20.639Z,967.76
2023-02-15T02:15:31.847Z,967.75
2023-02-15T02:15:42.307Z,967.76
2023-02-15T02:15:53.126Z,967.77
2023-02-15T02:16:04.041Z,967.77
2023-02-15T02:16:14.659Z,967.78
2023-02-15T02:16:25.489Z,967.77